sensor_id;sensor_type;location;lat;lon;timestamp;P1;P2;P0
36453;PMS5003;22478;51.740;-1.314;2024-03-17T00:00:40;25;24;
36453;PMS5003;22478;51.740;-1.314;2024-03-17T00:03:08;21;19;
36453;PMS5003;22478;51.740;-1.314;2024-03-17T00:05:35;21;17;
36453;PMS5003;22478;51.740;-1.314;2024-03-17T00:08:03;22;18;
36453;PMS5003;22478;51.740;-1.314;2024-03-17T00:10:31;19;17;
36453;PMS5003;22478;51.740;-1.314;2024-03-17T00:12:58;20;19;
36453;PMS5003;22478;51.740;-1.314;2024-03-17T00:15:26;21;17;
36453;PMS5003;22478;51.740;-1.314;2024-03-17T00:17:53;22;17;
36453;PMS5003;22478;51.740;-1.314;2024-03-17T00:20:20;24;21;
36453;PMS5003;22478;51.740;-1.314;2024-03-17T00:22:48;22;19;
36453;PMS5003;22478;51.740;-1.314;2024-03-17T00:25:16;18;18;
36453;PMS5003;22478;51.740;-1.314;2024-03-17T00:27:43;18;16;
36453;PMS5003;22478;51.740;-1.314;2024-03-17T00:30:11;17;14;
36453;PMS5003;22478;51.740;-1.314;2024-03-17T00:32:39;22;19;
36453;PMS5003;22478;51.740;-1.314;2024-03-17T00:35:06;22;18;
36453;PMS5003;22478;51.740;-1.314;2024-03-17T00:37:35;23;18;
36453;PMS5003;22478;51.740;-1.314;2024-03-17T00:40:03;24;21;
36453;PMS5003;22478;51.740;-1.314;2024-03-17T00:42:31;28;24;
36453;PMS5003;22478;51.740;-1.314;2024-03-17T00:44:59;24;21;
36453;PMS5003;22478;51.740;-1.314;2024-03-17T00:47:26;23;21;
36453;PMS5003;22478;51.740;-1.314;2024-03-17T00:49:53;23;20;
36453;PMS5003;22478;51.740;-1.314;2024-03-17T00:52:21;19;19;
36453;PMS5003;22478;51.740;-1.314;2024-03-17T00:54:48;26;19;
36453;PMS5003;22478;51.740;-1.314;2024-03-17T00:57:16;19;19;
36453;PMS5003;22478;51.740;-1.314;2024-03-17T00:59:43;20;16;
36453;PMS5003;22478;51.740;-1.314;2024-03-17T01:02:10;20;17;
36453;PMS5003;22478;51.740;-1.314;2024-03-17T01:04:39;18;16;
36453;PMS5003;22478;51.740;-1.314;2024-03-17T01:07:06;19;19;
36453;PMS5003;22478;51.740;-1.314;2024-03-17T01:09:34;18;16;
36453;PMS5003;22478;51.740;-1.314;2024-03-17T01:12:01;20;18;
36453;PMS5003;22478;51.740;-1.314;2024-03-17T01:14:29;20;17;
36453;PMS5003;22478;51.740;-1.314;2024-03-17T01:16:57;20;17;
36453;PMS5003;22478;51.740;-1.314;2024-03-17T01:19:24;18;18;
36453;PMS5003;22478;51.740;-1.314;2024-03-17T01:21:52;25;20;
36453;PMS5003;22478;51.740;-1.314;2024-03-17T01:24:19;28;24;
36453;PMS5003;22478;51.740;-1.314;2024-03-17T01:26:46;19;19;
36453;PMS5003;22478;51.740;-1.314;2024-03-17T01:29:14;28;26;
36453;PMS5003;22478;51.740;-1.314;2024-03-17T01:31:41;20;19;
36453;PMS5003;22478;51.740;-1.314;2024-03-17T01:34:08;25;23;
36453;PMS5003;22478;51.740;-1.314;2024-03-17T01:36:35;27;22;
36453;PMS5003;22478;51.740;-1.314;2024-03-17T01:39:03;24;18;
36453;PMS5003;22478;51.740;-1.314;2024-03-17T01:41:30;29;24;
36453;PMS5003;22478;51.740;-1.314;2024-03-17T01:43:57;20;18;
36453;PMS5003;22478;51.740;-1.314;2024-03-17T01:46:25;21;21;
36453;PMS5003;22478;51.740;-1.314;2024-03-17T01:48:52;20;17;
36453;PMS5003;22478;51.740;-1.314;2024-03-17T01:51:20;24;22;
36453;PMS5003;22478;51.740;-1.314;2024-03-17T01:53:48;22;22;
36453;PMS5003;22478;51.740;-1.314;2024-03-17T01:56:16;26;24;
36453;PMS5003;22478;51.740;-1.314;2024-03-17T01:58:44;22;20;
36453;PMS5003;22478;51.740;-1.314;2024-03-17T02:01:11;24;21;
36453;PMS5003;22478;51.740;-1.314;2024-03-17T02:03:39;23;23;
36453;PMS5003;22478;51.740;-1.314;2024-03-17T02:06:07;24;19;
36453;PMS5003;22478;51.740;-1.314;2024-03-17T02:08:51;24;21;
36453;PMS5003;22478;51.740;-1.314;2024-03-17T02:11:27;29;23;
36453;PMS5003;22478;51.740;-1.314;2024-03-17T02:13:55;25;21;
36453;PMS5003;22478;51.740;-1.314;2024-03-17T02:16:24;27;25;
36453;PMS5003;22478;51.740;-1.314;2024-03-17T02:18:53;26;23;
36453;PMS5003;22478;51.740;-1.314;2024-03-17T02:21:21;24;21;
36453;PMS5003;22478;51.740;-1.314;2024-03-17T02:23:50;17;17;
36453;PMS5003;22478;51.740;-1.314;2024-03-17T02:26:17;20;19;
36453;PMS5003;22478;51.740;-1.314;2024-03-17T02:28:45;21;19;
36453;PMS5003;22478;51.740;-1.314;2024-03-17T02:31:13;27;22;
36453;PMS5003;22478;51.740;-1.314;2024-03-17T02:33:42;27;21;
36453;PMS5003;22478;51.740;-1.314;2024-03-17T02:36:09;25;22;
36453;PMS5003;22478;51.740;-1.314;2024-03-17T02:38:37;20;17;
36453;PMS5003;22478;51.740;-1.314;2024-03-17T02:41:04;19;17;
36453;PMS5003;22478;51.740;-1.314;2024-03-17T02:43:32;28;21;
36453;PMS5003;22478;51.740;-1.314;2024-03-17T02:45:59;27;21;
36453;PMS5003;22478;51.740;-1.314;2024-03-17T02:48:26;21;20;
36453;PMS5003;22478;51.740;-1.314;2024-03-17T02:50:54;24;18;
36453;PMS5003;22478;51.740;-1.314;2024-03-17T02:53:21;19;17;
36453;PMS5003;22478;51.740;-1.314;2024-03-17T02:55:49;20;18;
36453;PMS5003;22478;51.740;-1.314;2024-03-17T02:58:16;21;17;
36453;PMS5003;22478;51.740;-1.314;2024-03-17T03:00:44;20;20;
36453;PMS5003;22478;51.740;-1.314;2024-03-17T03:03:11;21;19;
36453;PMS5003;22478;51.740;-1.314;2024-03-17T03:05:38;21;17;
36453;PMS5003;22478;51.740;-1.314;2024-03-17T03:08:05;19;16;
36453;PMS5003;22478;51.740;-1.314;2024-03-17T03:10:32;24;21;
36453;PMS5003;22478;51.740;-1.314;2024-03-17T03:13:00;18;17;
36453;PMS5003;22478;51.740;-1.314;2024-03-17T03:15:27;21;16;
36453;PMS5003;22478;51.740;-1.314;2024-03-17T03:17:56;19;15;
36453;PMS5003;22478;51.740;-1.314;2024-03-17T03:20:24;21;18;
36453;PMS5003;22478;51.740;-1.314;2024-03-17T03:22:51;24;19;
36453;PMS5003;22478;51.740;-1.314;2024-03-17T03:25:19;20;17;
36453;PMS5003;22478;51.740;-1.314;2024-03-17T03:27:46;21;18;
36453;PMS5003;22478;51.740;-1.314;2024-03-17T03:30:14;22;17;
36453;PMS5003;22478;51.740;-1.314;2024-03-17T03:32:41;21;17;
36453;PMS5003;22478;51.740;-1.314;2024-03-17T03:35:08;17;17;
36453;PMS5003;22478;51.740;-1.314;2024-03-17T03:37:36;18;16;
36453;PMS5003;22478;51.740;-1.314;2024-03-17T03:40:04;13;13;
36453;PMS5003;22478;51.740;-1.314;2024-03-17T03:42:32;23;16;
36453;PMS5003;22478;51.740;-1.314;2024-03-17T03:44:59;17;15;
36453;PMS5003;22478;51.740;-1.314;2024-03-17T03:47:26;22;16;
36453;PMS5003;22478;51.740;-1.314;2024-03-17T03:49:54;16;15;
36453;PMS5003;22478;51.740;-1.314;2024-03-17T03:52:21;19;17;
36453;PMS5003;22478;51.740;-1.314;2024-03-17T03:54:50;15;13;
36453;PMS5003;22478;51.740;-1.314;2024-03-17T03:57:18;17;13;
36453;PMS5003;22478;51.740;-1.314;2024-03-17T03:59:45;16;15;
36453;PMS5003;22478;51.740;-1.314;2024-03-17T04:02:13;17;14;
36453;PMS5003;22478;51.740;-1.314;2024-03-17T04:04:40;25;21;
36453;PMS5003;22478;51.740;-1.314;2024-03-17T04:07:07;16;15;
36453;PMS5003;22478;51.740;-1.314;2024-03-17T04:09:34;21;16;
36453;PMS5003;22478;51.740;-1.314;2024-03-17T04:12:02;23;18;
36453;PMS5003;22478;51.740;-1.314;2024-03-17T04:14:29;21;19;
36453;PMS5003;22478;51.740;-1.314;2024-03-17T04:16:56;19;17;
36453;PMS5003;22478;51.740;-1.314;2024-03-17T04:19:23;18;18;
36453;PMS5003;22478;51.740;-1.314;2024-03-17T04:21:50;21;19;
36453;PMS5003;22478;51.740;-1.314;2024-03-17T04:24:18;17;14;
36453;PMS5003;22478;51.740;-1.314;2024-03-17T04:26:45;14;14;
36453;PMS5003;22478;51.740;-1.314;2024-03-17T04:29:12;18;17;
36453;PMS5003;22478;51.740;-1.314;2024-03-17T04:31:40;14;14;
36453;PMS5003;22478;51.740;-1.314;2024-03-17T04:34:07;21;15;
36453;PMS5003;22478;51.740;-1.314;2024-03-17T04:36:34;22;17;
36453;PMS5003;22478;51.740;-1.314;2024-03-17T04:39:02;19;17;
36453;PMS5003;22478;51.740;-1.314;2024-03-17T04:41:29;15;14;
36453;PMS5003;22478;51.740;-1.314;2024-03-17T04:43:56;19;19;
36453;PMS5003;22478;51.740;-1.314;2024-03-17T04:46:23;17;16;
36453;PMS5003;22478;51.740;-1.314;2024-03-17T04:48:50;16;13;
36453;PMS5003;22478;51.740;-1.314;2024-03-17T04:51:17;16;12;
36453;PMS5003;22478;51.740;-1.314;2024-03-17T04:53:44;14;13;
36453;PMS5003;22478;51.740;-1.314;2024-03-17T04:56:12;16;14;
36453;PMS5003;22478;51.740;-1.314;2024-03-17T04:58:39;14;12;
36453;PMS5003;22478;51.740;-1.314;2024-03-17T05:01:07;15;11;
36453;PMS5003;22478;51.740;-1.314;2024-03-17T05:03:34;21;17;
36453;PMS5003;22478;51.740;-1.314;2024-03-17T05:06:03;18;14;
36453;PMS5003;22478;51.740;-1.314;2024-03-17T05:08:31;15;13;
36453;PMS5003;22478;51.740;-1.314;2024-03-17T05:11:00;16;14;
36453;PMS5003;22478;51.740;-1.314;2024-03-17T05:13:28;17;17;
36453;PMS5003;22478;51.740;-1.314;2024-03-17T05:15:55;15;13;
36453;PMS5003;22478;51.740;-1.314;2024-03-17T05:18:23;15;12;
36453;PMS5003;22478;51.740;-1.314;2024-03-17T05:20:56;16;13;
36453;PMS5003;22478;51.740;-1.314;2024-03-17T05:23:24;15;14;
36453;PMS5003;22478;51.740;-1.314;2024-03-17T05:25:52;16;14;
36453;PMS5003;22478;51.740;-1.314;2024-03-17T05:28:20;13;12;
36453;PMS5003;22478;51.740;-1.314;2024-03-17T05:30:47;14;12;
36453;PMS5003;22478;51.740;-1.314;2024-03-17T05:33:15;16;16;
36453;PMS5003;22478;51.740;-1.314;2024-03-17T05:35:48;13;11;
36453;PMS5003;22478;51.740;-1.314;2024-03-17T05:38:16;14;10;
36453;PMS5003;22478;51.740;-1.314;2024-03-17T05:40:43;14;11;
36453;PMS5003;22478;51.740;-1.314;2024-03-17T05:43:10;13;11;
36453;PMS5003;22478;51.740;-1.314;2024-03-17T05:45:37;16;11;
36453;PMS5003;22478;51.740;-1.314;2024-03-17T05:48:04;20;17;
36453;PMS5003;22478;51.740;-1.314;2024-03-17T05:50:32;13;10;
36453;PMS5003;22478;51.740;-1.314;2024-03-17T05:53:01;15;13;
36453;PMS5003;22478;51.740;-1.314;2024-03-17T05:55:29;12;12;
36453;PMS5003;22478;51.740;-1.314;2024-03-17T05:57:56;16;14;
36453;PMS5003;22478;51.740;-1.314;2024-03-17T06:00:23;11;11;
36453;PMS5003;22478;51.740;-1.314;2024-03-17T06:02:50;14;11;
36453;PMS5003;22478;51.740;-1.314;2024-03-17T06:05:17;19;14;
36453;PMS5003;22478;51.740;-1.314;2024-03-17T06:07:44;10;10;
36453;PMS5003;22478;51.740;-1.314;2024-03-17T06:10:11;20;13;
36453;PMS5003;22478;51.740;-1.314;2024-03-17T06:12:38;14;14;
36453;PMS5003;22478;51.740;-1.314;2024-03-17T06:15:06;11;9;
36453;PMS5003;22478;51.740;-1.314;2024-03-17T06:17:33;18;13;
36453;PMS5003;22478;51.740;-1.314;2024-03-17T06:20:01;12;10;
36453;PMS5003;22478;51.740;-1.314;2024-03-17T06:22:28;14;13;
36453;PMS5003;22478;51.740;-1.314;2024-03-17T06:24:55;17;14;
36453;PMS5003;22478;51.740;-1.314;2024-03-17T06:27:23;12;11;
36453;PMS5003;22478;51.740;-1.314;2024-03-17T06:29:50;17;15;
36453;PMS5003;22478;51.740;-1.314;2024-03-17T06:32:17;14;11;
36453;PMS5003;22478;51.740;-1.314;2024-03-17T06:34:44;12;12;
36453;PMS5003;22478;51.740;-1.314;2024-03-17T06:37:11;15;12;
36453;PMS5003;22478;51.740;-1.314;2024-03-17T06:39:38;14;12;
36453;PMS5003;22478;51.740;-1.314;2024-03-17T06:42:05;16;12;
36453;PMS5003;22478;51.740;-1.314;2024-03-17T06:44:32;14;12;
36453;PMS5003;22478;51.740;-1.314;2024-03-17T06:47:00;10;10;
36453;PMS5003;22478;51.740;-1.314;2024-03-17T06:49:27;13;11;
36453;PMS5003;22478;51.740;-1.314;2024-03-17T06:51:54;15;14;
36453;PMS5003;22478;51.740;-1.314;2024-03-17T06:54:21;14;13;
36453;PMS5003;22478;51.740;-1.314;2024-03-17T06:56:48;14;11;
36453;PMS5003;22478;51.740;-1.314;2024-03-17T06:59:15;13;13;
36453;PMS5003;22478;51.740;-1.314;2024-03-17T07:01:42;9;9;
36453;PMS5003;22478;51.740;-1.314;2024-03-17T07:04:10;13;11;
36453;PMS5003;22478;51.740;-1.314;2024-03-17T07:06:37;13;11;
36453;PMS5003;22478;51.740;-1.314;2024-03-17T07:09:04;16;14;
36453;PMS5003;22478;51.740;-1.314;2024-03-17T07:11:31;13;9;
36453;PMS5003;22478;51.740;-1.314;2024-03-17T07:13:59;10;9;
36453;PMS5003;22478;51.740;-1.314;2024-03-17T07:16:26;9;9;
36453;PMS5003;22478;51.740;-1.314;2024-03-17T07:18:54;10;10;
36453;PMS5003;22478;51.740;-1.314;2024-03-17T07:21:20;11;9;
36453;PMS5003;22478;51.740;-1.314;2024-03-17T07:23:48;7;7;
36453;PMS5003;22478;51.740;-1.314;2024-03-17T07:26:15;8;8;
36453;PMS5003;22478;51.740;-1.314;2024-03-17T07:28:43;8;8;
36453;PMS5003;22478;51.740;-1.314;2024-03-17T07:31:10;8;7;
36453;PMS5003;22478;51.740;-1.314;2024-03-17T07:33:37;7;7;
36453;PMS5003;22478;51.740;-1.314;2024-03-17T07:36:05;10;10;
36453;PMS5003;22478;51.740;-1.314;2024-03-17T07:38:32;6;6;
36453;PMS5003;22478;51.740;-1.314;2024-03-17T07:41:00;7;7;
36453;PMS5003;22478;51.740;-1.314;2024-03-17T07:43:28;5;5;
36453;PMS5003;22478;51.740;-1.314;2024-03-17T07:45:58;9;8;
36453;PMS5003;22478;51.740;-1.314;2024-03-17T07:48:26;7;7;
36453;PMS5003;22478;51.740;-1.314;2024-03-17T07:50:54;6;6;
36453;PMS5003;22478;51.740;-1.314;2024-03-17T07:53:22;6;6;
36453;PMS5003;22478;51.740;-1.314;2024-03-17T07:55:56;5;5;
36453;PMS5003;22478;51.740;-1.314;2024-03-17T07:58:24;7;7;
36453;PMS5003;22478;51.740;-1.314;2024-03-17T08:00:52;6;6;
36453;PMS5003;22478;51.740;-1.314;2024-03-17T08:03:19;4;4;
36453;PMS5003;22478;51.740;-1.314;2024-03-17T08:05:47;5;4;
36453;PMS5003;22478;51.740;-1.314;2024-03-17T08:08:15;7;4;
36453;PMS5003;22478;51.740;-1.314;2024-03-17T08:10:42;5;5;
36453;PMS5003;22478;51.740;-1.314;2024-03-17T08:13:09;6;5;
36453;PMS5003;22478;51.740;-1.314;2024-03-17T08:15:36;5;5;
36453;PMS5003;22478;51.740;-1.314;2024-03-17T08:18:04;4;2;
36453;PMS5003;22478;51.740;-1.314;2024-03-17T08:20:31;6;4;
36453;PMS5003;22478;51.740;-1.314;2024-03-17T08:22:58;5;5;
36453;PMS5003;22478;51.740;-1.314;2024-03-17T08:25:25;7;6;
36453;PMS5003;22478;51.740;-1.314;2024-03-17T08:27:52;6;6;
36453;PMS5003;22478;51.740;-1.314;2024-03-17T08:30:20;5;5;
36453;PMS5003;22478;51.740;-1.314;2024-03-17T08:32:47;6;5;
36453;PMS5003;22478;51.740;-1.314;2024-03-17T08:35:14;9;6;
36453;PMS5003;22478;51.740;-1.314;2024-03-17T08:37:41;6;6;
36453;PMS5003;22478;51.740;-1.314;2024-03-17T08:40:08;8;7;
36453;PMS5003;22478;51.740;-1.314;2024-03-17T08:42:36;6;6;
36453;PMS5003;22478;51.740;-1.314;2024-03-17T08:45:04;7;6;
36453;PMS5003;22478;51.740;-1.314;2024-03-17T08:47:32;9;7;
36453;PMS5003;22478;51.740;-1.314;2024-03-17T08:49:59;6;5;
36453;PMS5003;22478;51.740;-1.314;2024-03-17T08:52:26;4;4;
36453;PMS5003;22478;51.740;-1.314;2024-03-17T08:54:53;8;6;
36453;PMS5003;22478;51.740;-1.314;2024-03-17T08:57:20;4;4;
36453;PMS5003;22478;51.740;-1.314;2024-03-17T08:59:47;3;3;
36453;PMS5003;22478;51.740;-1.314;2024-03-17T09:02:15;7;7;
36453;PMS5003;22478;51.740;-1.314;2024-03-17T09:04:43;6;6;
36453;PMS5003;22478;51.740;-1.314;2024-03-17T09:07:10;5;4;
36453;PMS5003;22478;51.740;-1.314;2024-03-17T09:09:37;4;4;
36453;PMS5003;22478;51.740;-1.314;2024-03-17T09:12:04;6;4;
36453;PMS5003;22478;51.740;-1.314;2024-03-17T09:14:32;4;3;
36453;PMS5003;22478;51.740;-1.314;2024-03-17T09:16:59;3;3;
36453;PMS5003;22478;51.740;-1.314;2024-03-17T09:19:27;4;3;
36453;PMS5003;22478;51.740;-1.314;2024-03-17T09:21:54;3;3;
36453;PMS5003;22478;51.740;-1.314;2024-03-17T09:24:21;2;2;
36453;PMS5003;22478;51.740;-1.314;2024-03-17T09:26:48;2;2;
36453;PMS5003;22478;51.740;-1.314;2024-03-17T09:29:15;3;3;
36453;PMS5003;22478;51.740;-1.314;2024-03-17T09:31:42;2;2;
36453;PMS5003;22478;51.740;-1.314;2024-03-17T09:34:09;1;1;
36453;PMS5003;22478;51.740;-1.314;2024-03-17T09:36:36;1;1;
36453;PMS5003;22478;51.740;-1.314;2024-03-17T09:39:04;2;2;
36453;PMS5003;22478;51.740;-1.314;2024-03-17T09:41:31;1;1;
36453;PMS5003;22478;51.740;-1.314;2024-03-17T09:43:59;1;1;
36453;PMS5003;22478;51.740;-1.314;2024-03-17T09:46:26;0;0;
36453;PMS5003;22478;51.740;-1.314;2024-03-17T09:48:54;1;1;
36453;PMS5003;22478;51.740;-1.314;2024-03-17T09:51:22;1;1;
36453;PMS5003;22478;51.740;-1.314;2024-03-17T09:53:51;1;1;
36453;PMS5003;22478;51.740;-1.314;2024-03-17T09:56:19;1;0;
36453;PMS5003;22478;51.740;-1.314;2024-03-17T09:58:48;0;0;
36453;PMS5003;22478;51.740;-1.314;2024-03-17T10:01:17;0;0;
36453;PMS5003;22478;51.740;-1.314;2024-03-17T10:03:45;2;1;
36453;PMS5003;22478;51.740;-1.314;2024-03-17T10:06:15;0;0;
36453;PMS5003;22478;51.740;-1.314;2024-03-17T10:08:43;0;0;
36453;PMS5003;22478;51.740;-1.314;2024-03-17T10:11:12;0;0;
36453;PMS5003;22478;51.740;-1.314;2024-03-17T10:13:39;2;2;
36453;PMS5003;22478;51.740;-1.314;2024-03-17T10:16:06;1;1;
36453;PMS5003;22478;51.740;-1.314;2024-03-17T10:18:43;1;1;
36453;PMS5003;22478;51.740;-1.314;2024-03-17T10:21:18;0;0;
36453;PMS5003;22478;51.740;-1.314;2024-03-17T10:24:00;3;1;
36453;PMS5003;22478;51.740;-1.314;2024-03-17T10:26:31;0;0;
36453;PMS5003;22478;51.740;-1.314;2024-03-17T10:28:58;0;0;
36453;PMS5003;22478;51.740;-1.314;2024-03-17T10:31:25;1;1;
36453;PMS5003;22478;51.740;-1.314;2024-03-17T10:34:00;1;1;
36453;PMS5003;22478;51.740;-1.314;2024-03-17T10:36:28;0;0;
36453;PMS5003;22478;51.740;-1.314;2024-03-17T10:38:55;1;1;
36453;PMS5003;22478;51.740;-1.314;2024-03-17T10:41:22;0;0;
36453;PMS5003;22478;51.740;-1.314;2024-03-17T10:43:54;0;0;
36453;PMS5003;22478;51.740;-1.314;2024-03-17T10:46:22;0;0;
36453;PMS5003;22478;51.740;-1.314;2024-03-17T10:48:52;1;1;
36453;PMS5003;22478;51.740;-1.314;2024-03-17T10:51:20;0;0;
36453;PMS5003;22478;51.740;-1.314;2024-03-17T10:53:48;0;0;
36453;PMS5003;22478;51.740;-1.314;2024-03-17T10:56:16;0;0;
36453;PMS5003;22478;51.740;-1.314;2024-03-17T10:58:48;0;0;
36453;PMS5003;22478;51.740;-1.314;2024-03-17T11:01:19;0;0;
36453;PMS5003;22478;51.740;-1.314;2024-03-17T11:03:48;0;0;
36453;PMS5003;22478;51.740;-1.314;2024-03-17T11:06:16;0;0;
36453;PMS5003;22478;51.740;-1.314;2024-03-17T11:08:44;0;0;
36453;PMS5003;22478;51.740;-1.314;2024-03-17T11:11:12;0;0;
36453;PMS5003;22478;51.740;-1.314;2024-03-17T11:13:40;0;0;
36453;PMS5003;22478;51.740;-1.314;2024-03-17T11:16:24;1;1;
36453;PMS5003;22478;51.740;-1.314;2024-03-17T11:18:52;2;0;
36453;PMS5003;22478;51.740;-1.314;2024-03-17T11:21:31;0;0;
36453;PMS5003;22478;51.740;-1.314;2024-03-17T11:23:59;0;0;
36453;PMS5003;22478;51.740;-1.314;2024-03-17T11:26:29;0;0;
36453;PMS5003;22478;51.740;-1.314;2024-03-17T11:28:58;0;0;
36453;PMS5003;22478;51.740;-1.314;2024-03-17T11:31:35;1;0;
36453;PMS5003;22478;51.740;-1.314;2024-03-17T11:34:05;0;0;
36453;PMS5003;22478;51.740;-1.314;2024-03-17T11:36:35;0;0;
36453;PMS5003;22478;51.740;-1.314;2024-03-17T11:39:03;0;0;
36453;PMS5003;22478;51.740;-1.314;2024-03-17T11:41:35;0;0;
36453;PMS5003;22478;51.740;-1.314;2024-03-17T11:44:23;0;0;
36453;PMS5003;22478;51.740;-1.314;2024-03-17T11:46:52;0;0;
36453;PMS5003;22478;51.740;-1.314;2024-03-17T11:49:21;0;0;
36453;PMS5003;22478;51.740;-1.314;2024-03-17T11:51:50;0;0;
36453;PMS5003;22478;51.740;-1.314;2024-03-17T11:54:18;0;0;
36453;PMS5003;22478;51.740;-1.314;2024-03-17T11:56:48;0;0;
36453;PMS5003;22478;51.740;-1.314;2024-03-17T11:59:16;0;0;
36453;PMS5003;22478;51.740;-1.314;2024-03-17T12:01:44;0;0;
36453;PMS5003;22478;51.740;-1.314;2024-03-17T12:04:12;0;0;
36453;PMS5003;22478;51.740;-1.314;2024-03-17T12:06:44;0;0;
36453;PMS5003;22478;51.740;-1.314;2024-03-17T12:09:11;0;0;
36453;PMS5003;22478;51.740;-1.314;2024-03-17T12:11:46;0;0;
36453;PMS5003;22478;51.740;-1.314;2024-03-17T12:14:15;3;0;
36453;PMS5003;22478;51.740;-1.314;2024-03-17T12:16:47;0;0;
36453;PMS5003;22478;51.740;-1.314;2024-03-17T12:19:17;0;0;
36453;PMS5003;22478;51.740;-1.314;2024-03-17T12:21:44;0;0;
36453;PMS5003;22478;51.740;-1.314;2024-03-17T12:24:14;0;0;
36453;PMS5003;22478;51.740;-1.314;2024-03-17T12:26:43;1;1;
36453;PMS5003;22478;51.740;-1.314;2024-03-17T12:29:27;0;0;
36453;PMS5003;22478;51.740;-1.314;2024-03-17T12:31:56;0;0;
36453;PMS5003;22478;51.740;-1.314;2024-03-17T12:34:25;0;0;
36453;PMS5003;22478;51.740;-1.314;2024-03-17T12:36:53;2;0;
36453;PMS5003;22478;51.740;-1.314;2024-03-17T12:39:22;3;3;
36453;PMS5003;22478;51.740;-1.314;2024-03-17T12:42:07;1;1;
36453;PMS5003;22478;51.740;-1.314;2024-03-17T12:44:36;0;0;
36453;PMS5003;22478;51.740;-1.314;2024-03-17T12:47:05;0;0;
36453;PMS5003;22478;51.740;-1.314;2024-03-17T12:49:34;0;0;
36453;PMS5003;22478;51.740;-1.314;2024-03-17T12:52:01;1;1;
36453;PMS5003;22478;51.740;-1.314;2024-03-17T12:54:29;1;1;
36453;PMS5003;22478;51.740;-1.314;2024-03-17T12:57:04;1;1;
36453;PMS5003;22478;51.740;-1.314;2024-03-17T12:59:40;1;1;
36453;PMS5003;22478;51.740;-1.314;2024-03-17T13:02:10;1;0;
36453;PMS5003;22478;51.740;-1.314;2024-03-17T13:04:38;0;0;
36453;PMS5003;22478;51.740;-1.314;2024-03-17T13:07:12;1;1;
36453;PMS5003;22478;51.740;-1.314;2024-03-17T13:09:41;2;1;
36453;PMS5003;22478;51.740;-1.314;2024-03-17T13:12:15;1;1;
36453;PMS5003;22478;51.740;-1.314;2024-03-17T13:14:42;1;1;
36453;PMS5003;22478;51.740;-1.314;2024-03-17T13:17:10;1;1;
36453;PMS5003;22478;51.740;-1.314;2024-03-17T13:19:45;0;0;
36453;PMS5003;22478;51.740;-1.314;2024-03-17T13:22:12;0;0;
36453;PMS5003;22478;51.740;-1.314;2024-03-17T13:24:40;0;0;
36453;PMS5003;22478;51.740;-1.314;2024-03-17T13:27:07;0;0;
36453;PMS5003;22478;51.740;-1.314;2024-03-17T13:29:35;0;0;
36453;PMS5003;22478;51.740;-1.314;2024-03-17T13:32:02;0;0;
36453;PMS5003;22478;51.740;-1.314;2024-03-17T13:34:30;1;1;
36453;PMS5003;22478;51.740;-1.314;2024-03-17T13:36:58;1;1;
36453;PMS5003;22478;51.740;-1.314;2024-03-17T13:39:28;0;0;
36453;PMS5003;22478;51.740;-1.314;2024-03-17T13:41:56;0;0;
36453;PMS5003;22478;51.740;-1.314;2024-03-17T13:44:24;1;0;
36453;PMS5003;22478;51.740;-1.314;2024-03-17T13:46:52;0;0;
36453;PMS5003;22478;51.740;-1.314;2024-03-17T13:49:19;0;0;
36453;PMS5003;22478;51.740;-1.314;2024-03-17T13:51:47;0;0;
36453;PMS5003;22478;51.740;-1.314;2024-03-17T13:54:15;0;0;
36453;PMS5003;22478;51.740;-1.314;2024-03-17T13:56:42;0;0;
36453;PMS5003;22478;51.740;-1.314;2024-03-17T13:59:13;0;0;
36453;PMS5003;22478;51.740;-1.314;2024-03-17T14:01:41;0;0;
36453;PMS5003;22478;51.740;-1.314;2024-03-17T14:04:09;2;1;
36453;PMS5003;22478;51.740;-1.314;2024-03-17T14:06:40;0;0;
36453;PMS5003;22478;51.740;-1.314;2024-03-17T14:09:08;0;0;
36453;PMS5003;22478;51.740;-1.314;2024-03-17T14:11:35;2;0;
36453;PMS5003;22478;51.740;-1.314;2024-03-17T14:14:03;0;0;
36453;PMS5003;22478;51.740;-1.314;2024-03-17T14:16:30;0;0;
36453;PMS5003;22478;51.740;-1.314;2024-03-17T14:18:58;0;0;
36453;PMS5003;22478;51.740;-1.314;2024-03-17T14:21:26;1;1;
36453;PMS5003;22478;51.740;-1.314;2024-03-17T14:23:54;0;0;
36453;PMS5003;22478;51.740;-1.314;2024-03-17T14:26:22;1;1;
36453;PMS5003;22478;51.740;-1.314;2024-03-17T14:28:49;0;0;
36453;PMS5003;22478;51.740;-1.314;2024-03-17T14:31:16;1;0;
36453;PMS5003;22478;51.740;-1.314;2024-03-17T14:33:44;1;1;
36453;PMS5003;22478;51.740;-1.314;2024-03-17T14:36:11;0;0;
36453;PMS5003;22478;51.740;-1.314;2024-03-17T14:38:38;0;0;
36453;PMS5003;22478;51.740;-1.314;2024-03-17T14:41:05;1;1;
36453;PMS5003;22478;51.740;-1.314;2024-03-17T14:43:31;1;0;
36453;PMS5003;22478;51.740;-1.314;2024-03-17T14:45:58;4;2;
36453;PMS5003;22478;51.740;-1.314;2024-03-17T14:48:25;0;0;
36453;PMS5003;22478;51.740;-1.314;2024-03-17T14:50:52;1;1;
36453;PMS5003;22478;51.740;-1.314;2024-03-17T14:53:19;1;1;
36453;PMS5003;22478;51.740;-1.314;2024-03-17T14:55:46;1;1;
36453;PMS5003;22478;51.740;-1.314;2024-03-17T14:58:13;0;0;
36453;PMS5003;22478;51.740;-1.314;2024-03-17T15:00:40;0;0;
36453;PMS5003;22478;51.740;-1.314;2024-03-17T15:03:07;4;1;
36453;PMS5003;22478;51.740;-1.314;2024-03-17T15:05:34;1;1;
36453;PMS5003;22478;51.740;-1.314;2024-03-17T15:08:01;1;0;
36453;PMS5003;22478;51.740;-1.314;2024-03-17T15:10:27;1;1;
36453;PMS5003;22478;51.740;-1.314;2024-03-17T15:12:54;1;1;
36453;PMS5003;22478;51.740;-1.314;2024-03-17T15:15:21;1;0;
36453;PMS5003;22478;51.740;-1.314;2024-03-17T15:17:48;1;1;
36453;PMS5003;22478;51.740;-1.314;2024-03-17T15:20:16;0;0;
36453;PMS5003;22478;51.740;-1.314;2024-03-17T15:22:43;5;2;
36453;PMS5003;22478;51.740;-1.314;2024-03-17T15:25:11;1;1;
36453;PMS5003;22478;51.740;-1.314;2024-03-17T15:27:39;2;2;
36453;PMS5003;22478;51.740;-1.314;2024-03-17T15:30:07;3;0;
36453;PMS5003;22478;51.740;-1.314;2024-03-17T15:32:37;1;1;
36453;PMS5003;22478;51.740;-1.314;2024-03-17T15:35:04;1;1;
36453;PMS5003;22478;51.740;-1.314;2024-03-17T15:37:32;0;0;
36453;PMS5003;22478;51.740;-1.314;2024-03-17T15:39:58;0;0;
36453;PMS5003;22478;51.740;-1.314;2024-03-17T15:42:25;1;1;
36453;PMS5003;22478;51.740;-1.314;2024-03-17T15:44:52;0;0;
36453;PMS5003;22478;51.740;-1.314;2024-03-17T15:47:19;4;3;
36453;PMS5003;22478;51.740;-1.314;2024-03-17T15:49:46;1;1;
36453;PMS5003;22478;51.740;-1.314;2024-03-17T15:52:13;4;1;
36453;PMS5003;22478;51.740;-1.314;2024-03-17T15:54:40;1;1;
36453;PMS5003;22478;51.740;-1.314;2024-03-17T15:57:07;3;1;
36453;PMS5003;22478;51.740;-1.314;2024-03-17T15:59:34;0;0;
36453;PMS5003;22478;51.740;-1.314;2024-03-17T16:02:01;1;1;
36453;PMS5003;22478;51.740;-1.314;2024-03-17T16:04:27;4;1;
36453;PMS5003;22478;51.740;-1.314;2024-03-17T16:06:55;2;2;
36453;PMS5003;22478;51.740;-1.314;2024-03-17T16:09:22;3;3;
36453;PMS5003;22478;51.740;-1.314;2024-03-17T16:11:49;2;2;
36453;PMS5003;22478;51.740;-1.314;2024-03-17T16:14:16;2;2;
36453;PMS5003;22478;51.740;-1.314;2024-03-17T16:16:43;2;2;
36453;PMS5003;22478;51.740;-1.314;2024-03-17T16:19:10;3;3;
36453;PMS5003;22478;51.740;-1.314;2024-03-17T16:21:37;2;1;
36453;PMS5003;22478;51.740;-1.314;2024-03-17T16:24:06;3;1;